createdAt,value
2022-10-08T00:01:18.753Z,8.43
2022-10-08T00:06:14.819Z,8.40
2022-10-08T00:11:09.108Z,8.40
2022-10-08T00:16:00.774Z,8.43
2022-10-08T00:20:52.592Z,8.44
2022-10-08T00:25:45.473Z,8.45
2022-10-08T00:30:39.848Z,8.42
2022-10-08T00:35:37.229Z,8.34
2022-10-08T00:40:28.808Z,8.28
2022-10-08T00:45:20.801Z,8.25
2022-10-08T00:50:33.401Z,8.18
2022-10-08T00:55:29.542Z,8.11
2022-10-08T01:00:24.835Z,8.07
2022-10-08T01:05:19.882Z,8.05
2022-10-08T01:10:23.628Z,8.01
2022-10-08T01:15:27.745Z,7.98
2022-10-08T01:20:36.404Z,7.94
2022-10-08T01:25:34.016Z,7.89
2022-10-08T01:30:25.711Z,7.86
2022-10-08T01:35:25.742Z,7.83
2022-10-08T01:40:22.629Z,7.81
2022-10-08T01:45:19.267Z,7.75
2022-10-08T01:50:30.814Z,7.72
2022-10-08T01:55:31.868Z,7.66
2022-10-08T02:00:23.508Z,7.60
2022-10-08T02:05:15.242Z,7.55
2022-10-08T02:10:19.602Z,7.53
2022-10-08T02:15:23.798Z,7.48
2022-10-08T02:20:20.636Z,7.41
2022-10-08T02:25:44.628Z,7.39
2022-10-08T02:30:55.490Z,7.38
2022-10-08T02:35:52.123Z,7.38
2022-10-08T02:40:48.581Z,7.37
2022-10-08T02:45:46.657Z,7.35
2022-10-08T02:50:40.829Z,7.36
2022-10-08T02:55:44.807Z,7.36
2022-10-08T03:00:59.484Z,7.33
2022-10-08T03:05:52.687Z,7.30
2022-10-08T03:10:45.012Z,7.27
2022-10-08T03:15:37.527Z,7.24
2022-10-08T03:20:30.978Z,7.23
2022-10-08T03:25:22.642Z,7.22
2022-10-08T03:30:14.357Z,7.19
2022-10-08T03:35:06.060Z,7.17
2022-10-08T03:39:57.607Z,7.16
2022-10-08T03:44:49.289Z,7.19
2022-10-08T03:49:41.282Z,7.16
2022-10-08T03:54:35.929Z,7.13
2022-10-08T03:59:27.606Z,7.12
2022-10-08T04:04:23.125Z,7.13
2022-10-08T04:09:17.165Z,7.14
2022-10-08T04:14:08.937Z,7.13
2022-10-08T04:19:00.644Z,7.10
2022-10-08T04:23:52.261Z,7.07
2022-10-08T04:28:45.336Z,7.05
2022-10-08T04:33:37.941Z,7.01
2022-10-08T04:38:29.617Z,7.01
2022-10-08T04:43:22.257Z,7.05
2022-10-08T04:48:14.005Z,7.07
2022-10-08T04:53:06.729Z,7.11
2022-10-08T04:57:58.462Z,7.11
2022-10-08T05:02:50.639Z,7.09
2022-10-08T05:07:42.788Z,7.11
2022-10-08T05:12:34.531Z,7.10
2022-10-08T05:17:26.602Z,7.08
2022-10-08T05:22:18.506Z,7.06
2022-10-08T05:27:10.206Z,7.04
2022-10-08T05:32:02.352Z,7.02
2022-10-08T05:36:54.155Z,6.98
2022-10-08T05:41:45.774Z,6.96
2022-10-08T05:46:38.498Z,6.95
2022-10-08T05:51:30.430Z,6.92
2022-10-08T05:56:23.561Z,6.94
2022-10-08T06:01:31.348Z,6.95
2022-10-08T06:06:24.346Z,6.95
2022-10-08T06:11:16.462Z,6.94
2022-10-08T06:16:10.610Z,6.96
2022-10-08T06:21:13.366Z,6.95
2022-10-08T06:26:07.193Z,6.95
2022-10-08T06:30:59.605Z,6.95
2022-10-08T06:35:51.287Z,6.98
2022-10-08T06:40:43.093Z,6.98
2022-10-08T06:45:39.388Z,7.02
2022-10-08T06:50:31.197Z,7.07
2022-10-08T06:55:22.836Z,7.12
2022-10-08T07:00:14.621Z,7.16
2022-10-08T07:05:06.766Z,7.20
2022-10-08T07:09:58.419Z,7.26
2022-10-08T07:14:50.057Z,7.35
2022-10-08T07:19:41.874Z,7.47
2022-10-08T07:24:33.539Z,7.59
2022-10-08T07:29:26.368Z,7.70
2022-10-08T07:34:18.077Z,7.87
2022-10-08T07:39:14.961Z,8.40
2022-10-08T07:44:07.339Z,9.23
2022-10-08T07:49:01.593Z,10.04
2022-10-08T07:53:53.520Z,10.76
2022-10-08T07:58:47.320Z,11.33
2022-10-08T08:03:38.925Z,11.88
2022-10-08T08:08:30.569Z,12.28
2022-10-08T08:13:22.181Z,12.87
2022-10-08T08:18:13.912Z,13.45
2022-10-08T08:23:05.593Z,13.89
2022-10-08T08:27:57.375Z,14.26
2022-10-08T08:32:49.534Z,14.66
2022-10-08T08:37:41.512Z,15.02
2022-10-08T08:42:39.716Z,15.47
2022-10-08T08:47:41.419Z,15.85
2022-10-08T08:52:40.540Z,16.17
2022-10-08T08:57:52.365Z,16.51
2022-10-08T09:03:00.738Z,16.92
2022-10-08T09:08:06.173Z,17.51
2022-10-08T09:12:58.110Z,17.72
2022-10-08T09:17:52.325Z,18.00
2022-10-08T09:22:45.687Z,18.17
2022-10-08T09:27:58.156Z,18.49
2022-10-08T09:32:54.785Z,18.80
2022-10-08T09:37:48.514Z,19.17
2022-10-08T09:42:40.576Z,19.29
2022-10-08T09:47:32.366Z,19.38
2022-10-08T09:52:27.183Z,19.52
2022-10-08T09:57:21.720Z,19.71
2022-10-08T10:02:29.953Z,19.98
2022-10-08T10:07:22.814Z,20.07
2022-10-08T10:12:29.718Z,19.94
2022-10-08T10:17:35.659Z,20.00
2022-10-08T10:22:41.117Z,20.10
2022-10-08T10:27:42.522Z,20.36
2022-10-08T10:32:40.159Z,20.35
2022-10-08T10:37:37.680Z,20.32
2022-10-08T10:42:38.309Z,20.66
2022-10-08T10:47:32.377Z,21.03
2022-10-08T10:52:36.127Z,21.05
2022-10-08T10:58:10.930Z,20.94
2022-10-08T11:03:23.924Z,20.65
2022-10-08T11:08:39.017Z,20.79
2022-10-08T11:13:36.106Z,20.94
2022-10-08T11:18:45.895Z,21.05
2022-10-08T11:24:05.370Z,20.85
2022-10-08T11:29:15.975Z,20.35
2022-10-08T11:34:22.598Z,19.99
2022-10-08T11:39:38.225Z,19.81
2022-10-08T11:44:30.340Z,19.94
2022-10-08T11:49:22.946Z,19.73
2022-10-08T11:54:32.216Z,19.51
2022-10-08T11:59:56.902Z,19.32
2022-10-08T12:04:50.509Z,19.15
2022-10-08T12:10:07.342Z,19.01
2022-10-08T12:14:58.987Z,19.01
2022-10-08T12:20:19.993Z,19.05
2022-10-08T12:25:33.369Z,18.95
2022-10-08T12:30:57.063Z,18.92
2022-10-08T12:36:01.035Z,19.04
2022-10-08T12:41:11.234Z,18.96
2022-10-08T12:46:44.983Z,18.61
2022-10-08T12:52:04.612Z,18.41
2022-10-08T12:56:56.645Z,18.46
2022-10-08T13:01:51.621Z,18.44
2022-10-08T13:06:43.416Z,18.36
2022-10-08T13:11:35.331Z,18.29
2022-10-08T13:16:27.144Z,18.26
2022-10-08T13:21:57.609Z,18.25
2022-10-08T13:26:52.296Z,18.15
2022-10-08T13:31:51.020Z,18.00
2022-10-08T13:36:52.813Z,17.84
2022-10-08T13:41:52.486Z,17.71
2022-10-08T13:46:44.281Z,17.67
2022-10-08T13:51:36.077Z,17.48
2022-10-08T13:56:27.710Z,17.38
2022-10-08T14:01:21.279Z,17.36
2022-10-08T14:06:12.973Z,17.23
2022-10-08T14:11:04.654Z,17.07
2022-10-08T14:15:56.420Z,17.05
2022-10-08T14:20:51.053Z,17.09
2022-10-08T14:25:42.789Z,17.09
2022-10-08T14:30:34.494Z,17.02
2022-10-08T14:35:26.143Z,16.88
2022-10-08T14:40:21.169Z,16.82
2022-10-08T14:45:13.220Z,16.83
2022-10-08T14:50:05.572Z,16.88
2022-10-08T14:54:57.449Z,16.87
2022-10-08T14:59:49.250Z,16.66
2022-10-08T15:04:40.977Z,16.49
2022-10-08T15:09:32.783Z,16.44
2022-10-08T15:14:24.564Z,16.41
2022-10-08T15:19:21.059Z,16.47
2022-10-08T15:24:15.137Z,16.51
2022-10-08T15:29:06.943Z,16.52
2022-10-08T15:34:01.954Z,16.42
2022-10-08T15:39:07.826Z,16.45
2022-10-08T15:44:19.944Z,16.32
2022-10-08T15:49:11.947Z,16.14
2022-10-08T15:54:04.608Z,16.06
2022-10-08T15:58:58.708Z,15.99
2022-10-08T16:03:53.031Z,15.87
2022-10-08T16:08:45.306Z,15.83
2022-10-08T16:13:37.071Z,15.77
2022-10-08T16:18:28.790Z,15.67
2022-10-08T16:23:20.463Z,15.54
2022-10-08T16:28:12.204Z,15.43
2022-10-08T16:33:04.081Z,15.32
2022-10-08T16:37:55.954Z,15.17
2022-10-08T16:42:47.836Z,15.06
2022-10-08T16:47:39.774Z,14.92
2022-10-08T16:52:31.765Z,14.79
2022-10-08T16:57:24.919Z,14.66
2022-10-08T17:02:16.753Z,14.55
2022-10-08T17:07:08.575Z,14.42
2022-10-08T17:12:00.258Z,14.32
2022-10-08T17:16:52.048Z,14.23
2022-10-08T17:21:43.971Z,14.14
2022-10-08T17:26:35.754Z,14.05
2022-10-08T17:31:29.410Z,13.92
2022-10-08T17:36:26.707Z,13.83
2022-10-08T17:41:35.960Z,13.70
2022-10-08T17:46:33.646Z,13.56
2022-10-08T17:51:28.476Z,13.47
2022-10-08T17:56:21.431Z,13.36
2022-10-08T18:01:19.376Z,13.21
2022-10-08T18:06:11.744Z,13.14
2022-10-08T18:11:08.095Z,13.03
2022-10-08T18:16:11.196Z,12.94
2022-10-08T18:21:04.185Z,12.85
2022-10-08T18:26:05.953Z,12.79
2022-10-08T18:31:03.511Z,12.72
2022-10-08T18:35:55.255Z,12.62
2022-10-08T18:40:46.848Z,12.52
2022-10-08T18:45:39.171Z,12.45
2022-10-08T18:50:30.796Z,12.33
2022-10-08T18:55:22.413Z,12.23
2022-10-08T19:00:14.351Z,12.11
2022-10-08T19:05:06.721Z,12.01
2022-10-08T19:09:58.451Z,11.89
2022-10-08T19:14:50.079Z,11.73
2022-10-08T19:19:41.657Z,11.64
2022-10-08T19:24:35.491Z,11.52
2022-10-08T19:29:31.906Z,11.44
2022-10-08T19:34:26.626Z,11.29
2022-10-08T19:39:22.059Z,11.20
2022-10-08T19:44:14.585Z,11.08
2022-10-08T19:49:07.234Z,10.99
2022-10-08T19:54:01.099Z,10.90
2022-10-08T19:58:53.869Z,10.79
2022-10-08T20:03:45.843Z,10.66
2022-10-08T20:08:37.549Z,10.53
2022-10-08T20:13:29.175Z,10.46
2022-10-08T20:18:20.852Z,10.37
2022-10-08T20:23:12.713Z,10.26
2022-10-08T20:28:04.423Z,10.13
2022-10-08T20:32:56.061Z,10.08
2022-10-08T20:37:47.755Z,10.06
2022-10-08T20:42:39.503Z,9.94
2022-10-08T20:47:31.111Z,9.85
2022-10-08T20:52:22.717Z,9.79
2022-10-08T20:57:14.497Z,9.78
2022-10-08T21:02:06.681Z,9.76
2022-10-08T21:06:58.582Z,9.72
2022-10-08T21:11:50.474Z,9.77
2022-10-08T21:16:42.342Z,9.75
2022-10-08T21:21:34.962Z,9.75
2022-10-08T21:26:32.940Z,9.74
2022-10-08T21:31:26.011Z,9.78
2022-10-08T21:36:26.095Z,9.76
2022-10-08T21:41:19.411Z,9.75
2022-10-08T21:46:13.267Z,9.71
2022-10-08T21:51:09.757Z,9.72
2022-10-08T21:56:10.616Z,9.66
2022-10-08T22:01:02.325Z,9.67
2022-10-08T22:05:57.785Z,9.68
2022-10-08T22:10:49.893Z,9.65
2022-10-08T22:15:58.628Z,9.67
2022-10-08T22:20:51.018Z,9.68
2022-10-08T22:25:43.344Z,9.70
2022-10-08T22:30:36.570Z,9.72
2022-10-08T22:35:28.253Z,9.71
2022-10-08T22:40:20.586Z,9.70
2022-10-08T22:45:12.204Z,9.71
2022-10-08T22:50:04.278Z,9.69
2022-10-08T22:54:55.973Z,9.71
2022-10-08T22:59:47.697Z,9.68
2022-10-08T23:04:39.389Z,9.69
2022-10-08T23:09:31.040Z,9.70
2022-10-08T23:14:22.656Z,9.65
2022-10-08T23:19:15.550Z,9.62
2022-10-08T23:24:08.397Z,9.59
2022-10-08T23:29:01.512Z,9.56
2022-10-08T23:33:54.641Z,9.48
2022-10-08T23:38:46.722Z,9.44
2022-10-08T23:43:41.105Z,9.38
2022-10-08T23:48:33.348Z,9.35
2022-10-08T23:53:25.219Z,9.30
2022-10-08T23:58:20.318Z,9.31
